Flight Track Log - Related Links

Times and Time Zones

All times are in EDT time to prevent confusion due to time zone crossing. See the SKW6345 flight status page for this flight to view local times or setup timezone preferences in your user account.

Time Position Orientation Groundspeed Altitude Reporting Facility
EDT Latitude Longitude Course Direction KTS MPH feet Rate Location/Type
Tue 08:32:30 PM 33.9167 -118.4500 195° South 168 193 2,500  Level Southern California TRACON
Tue 08:33:30 PM 33.8667 -118.4667 195° South 201 231 3,800 1,366 Climbing Southern California TRACON
Tue 08:34:11 PM 33.8433 -118.4506 150° Southeast 197 227 4,800 1,689 Climbing Los Angeles Center
Tue 08:35:13 PM 33.7783 -118.4322 167° South 201 231 6,700 1,548 Climbing Los Angeles Center
Tue 08:36:15 PM 33.7261 -118.4061 157° South 214 246 8,000 1,113 Climbing Los Angeles Center
Tue 08:37:17 PM 33.6819 -118.3561 137° Southeast 222 255 9,000 532 Climbing Los Angeles Center
Tue 08:38:19 PM 33.6442 -118.2858 123° Southeast 258 297 9,100 48 Climbing Los Angeles Center
Tue 08:39:21 PM 33.6008 -118.1894 118° Southeast 275 316 9,100  Level Los Angeles Center
Tue 08:40:23 PM 33.5625 -118.1072 119° Southeast 281 323 9,100  Level Los Angeles Center
Tue 08:41:25 PM 33.5161 -118.0306 126° Southeast 285 328 9,100  Level Los Angeles Center
Tue 08:42:27 PM 33.4678 -117.9564 128° Southeast 283 326 9,100 -47 Level Los Angeles Center
Tue 08:43:32 PM 33.4167 -117.8667 124° Southeast 282 325 9,000  Descending Southern California TRACON
Tue 08:44:30 PM 33.3739 -117.8050 130° Southeast 284 327 9,100 50 Climbing Los Angeles Center
Tue 08:45:32 PM 33.3178 -117.7144 127° Southeast 284 327 9,100  Level Los Angeles Center
Tue 08:46:34 PM 33.2714 -117.6394 126° Southeast 282 325 9,100  Level Los Angeles Center
Tue 08:47:32 PM 33.2167 -117.5667 132° Southeast 286 329 9,100  Level Southern California TRACON
Tue 08:48:32 PM 33.1500 -117.5167 148° Southeast 281 323 9,100  Level Southern California TRACON
Tue 08:49:33 PM 33.0833 -117.4667 148° Southeast 281 323 9,100 -198 Level Southern California TRACON
Tue 08:50:33 PM 33.0167 -117.4167 148° Southeast 280 322 8,700 -450 Descending Southern California TRACON
Tue 08:51:33 PM 32.9667 -117.3667 140° Southeast 275 316 8,200 -600 Descending Southern California TRACON
Tue 08:52:33 PM 32.9167 -117.3000 132° Southeast 231 266 7,500 -600 Descending Southern California TRACON
Tue 08:53:33 PM 32.8833 -117.2500 128° Southeast 217 250 7,000 -200 Descending Southern California TRACON
Tue 08:54:33 PM 32.8333 -117.1833 132° Southeast 231 266 7,100 50 Climbing Southern California TRACON
Tue 08:55:33 PM 32.8167 -117.1167 107° East 230 265 7,100 -150 Level Southern California TRACON
Tue 08:56:33 PM 32.8000 -117.0500 107° East 223 257 6,800 -500 Descending Southern California TRACON
Tue 08:57:33 PM 32.7667 -116.9833 121° Southeast 223 257 6,100 -400 Descending Southern California TRACON
Tue 08:58:33 PM 32.7500 -116.9167 107° East 208 239 6,000 -50 Descending Southern California TRACON
Tue 08:59:33 PM 32.7000 -116.8833 151° Southeast 207 238 6,000 -450 Level Southern California TRACON
Tue 09:00:33 PM 32.6667 -116.9333 232° Southwest 209 241 5,100 -1,000 Descending Southern California TRACON
Tue 09:01:33 PM 32.6833 -116.9833 292° West 176 203 4,000 -1,200 Descending Southern California TRACON
Tue 09:02:33 PM 32.7000 -117.0333 292° West 177 204 2,700 -950 Descending Southern California TRACON
Tue 09:03:33 PM 32.7167 -117.0833 292° West 150 173 2,100 -750 Descending Southern California TRACON
Tue 09:04:33 PM 32.7167 -117.1333 270° West 143 165 1,200 -944 Descending Southern California TRACON
Tue 09:05:21 PM 32.7289 -117.1664 294° West 142 163 400 -1,000 Descending Los Angeles Center

Login

Don't have an account? Register now (free) for customized features, flight alerts, and more!